Time;durP1;ratioP1;P1;durP2;ratioP2;P2;SDS_P1;SDS_P2;PMS_P1;PMS_P2;Temp;Humidity;BMP_temperature;BMP_pressure;BME280_temperature;BME280_humidity;BME280_pressure;Samples;Min_cycle;Max_cycle;Signal;HPM_P1;HPM_P2
2021/04/22 00:02:25;;;;;;;19.33;5.10;;;5.60;74.20;;;;;;5066301;28;20051;-73
2021/04/22 00:04:50;;;;;;;16.50;5.30;;;5.50;74.20;;;;;;5068533;28;20423;-72
2021/04/22 00:07:19;;;;;;;19.73;5.30;;;5.50;74.00;;;;;;5059818;28;20060;-74
2021/04/22 00:09:46;;;;;;;14.85;5.00;;;5.50;73.90;;;;;;5059971;28;20373;-72
2021/04/22 00:12:12;;;;;;;20.88;5.30;;;5.40;73.70;;;;;;5065909;28;20033;-72
2021/04/22 00:14:38;;;;;;;19.55;5.80;;;5.50;73.30;;;;;;5064112;28;20372;-74
2021/04/22 00:17:11;;;;;;;15.10;5.13;;;5.50;73.10;;;;;;5059771;28;20073;-74
2021/04/22 00:19:38;;;;;;;20.63;5.82;;;5.40;73.10;;;;;;5065983;28;20064;-73
2021/04/22 00:22:04;;;;;;;17.98;4.55;;;5.40;73.20;;;;;;5068647;28;20120;-77
2021/04/22 00:24:30;;;;;;;20.13;4.53;;;5.40;73.00;;;;;;5058501;28;20079;-73
2021/04/22 00:26:56;;;;;;;16.55;5.13;;;5.40;73.00;;;;;;5067957;28;20036;-73
2021/04/22 00:29:21;;;;;;;23.92;5.05;;;5.30;73.00;;;;;;5056038;28;20119;-74
2021/04/22 00:31:47;;;;;;;12.77;4.75;;;5.30;72.50;;;;;;5055909;28;20037;-74
2021/04/22 00:34:13;;;;;;;16.65;4.32;;;5.30;72.50;;;;;;5058328;28;20056;-77
2021/04/22 00:36:39;;;;;;;19.48;4.82;;;5.30;72.30;;;;;;5066825;28;20041;-73
2021/04/22 00:39:05;;;;;;;14.85;4.03;;;5.30;72.50;;;;;;5072610;28;20119;-73
2021/04/22 00:41:31;;;;;;;17.00;4.55;;;5.30;72.40;;;;;;5065887;28;20052;-73
2021/04/22 00:43:57;;;;;;;16.10;4.25;;;5.30;72.30;;;;;;5060726;28;20045;-73
2021/04/22 00:46:23;;;;;;;15.60;4.25;;;5.30;72.40;;;;;;5044599;28;20097;-74
2021/04/22 00:48:49;;;;;;;17.90;4.93;;;5.10;72.40;;;;;;5065475;28;20032;-74
2021/04/22 00:51:14;;;;;;;16.63;4.57;;;5.10;72.40;;;;;;5048451;28;20037;-75
2021/04/22 00:53:41;;;;;;;19.80;4.20;;;5.10;72.50;;;;;;5044591;28;20476;-74
2021/04/22 00:56:07;;;;;;;13.48;3.65;;;5.20;72.50;;;;;;5047540;28;20064;-74
2021/04/22 00:58:33;;;;;;;18.30;4.75;;;5.20;72.40;;;;;;5064478;28;20044;-73
2021/04/22 01:01:01;;;;;;;20.48;4.50;;;5.10;72.30;;;;;;5060295;28;20040;-73
2021/04/22 01:03:27;;;;;;;21.48;5.25;;;5.10;72.70;;;;;;5070136;28;20076;-73
2021/04/22 01:05:57;;;;;;;20.65;6.10;;;5.10;73.00;;;;;;5064144;28;20071;-73
2021/04/22 01:08:23;;;;;;;19.13;5.03;;;5.00;73.10;;;;;;5062836;28;20040;-74
2021/04/22 01:10:49;;;;;;;16.48;4.85;;;4.90;73.50;;;;;;5067887;28;20075;-73
2021/04/22 01:13:15;;;;;;;20.90;5.30;;;4.90;73.70;;;;;;5068789;28;20506;-74
2021/04/22 01:15:41;;;;;;;20.67;4.95;;;4.90;73.80;;;;;;5068613;28;20052;-73
2021/04/22 01:18:07;;;;;;;16.13;4.50;;;4.90;74.00;;;;;;5064221;28;20039;-76
2021/04/22 01:20:53;;;;;;;20.95;5.93;;;4.80;74.20;;;;;;5067289;28;20568;-76
2021/04/22 01:23:19;;;;;;;16.92;4.97;;;4.80;74.30;;;;;;5057777;28;20040;-72
2021/04/22 01:25:51;;;;;;;16.50;5.13;;;4.70;74.50;;;;;;5066213;28;20067;-72
2021/04/22 01:28:19;;;;;;;21.00;5.20;;;4.70;74.70;;;;;;5064654;28;20045;-73
2021/04/22 01:30:44;;;;;;;20.02;5.63;;;4.70;74.80;;;;;;5068396;28;20398;-74
2021/04/22 01:33:14;;;;;;;18.55;5.53;;;4.60;74.90;;;;;;5067287;28;20036;-73
2021/04/22 01:35:42;;;;;;;19.50;4.82;;;4.60;75.10;;;;;;5060653;28;20039;-73
2021/04/22 01:38:10;;;;;;;19.58;5.20;;;4.50;75.30;;;;;;5065507;28;20032;-73
2021/04/22 01:40:36;;;;;;;17.15;4.43;;;4.50;75.50;;;;;;5068157;28;20071;-73
2021/04/22 01:43:02;;;;;;;19.55;5.57;;;4.50;75.60;;;;;;5064368;28;21315;-73
2021/04/22 01:45:28;;;;;;;24.60;5.68;;;4.40;75.60;;;;;;5067571;28;20391;-72
2021/04/22 01:47:54;;;;;;;18.17;4.63;;;4.30;76.00;;;;;;5066790;28;20033;-72
2021/04/22 01:50:24;;;;;;;19.05;4.88;;;4.40;76.10;;;;;;5063901;28;20041;-72
2021/04/22 01:52:51;;;;;;;23.42;5.38;;;4.30;76.30;;;;;;5072925;28;20025;-73
2021/04/22 01:55:23;;;;;;;16.55;6.00;;;4.30;76.40;;;;;;5048995;28;20025;-72
2021/04/22 01:57:50;;;;;;;23.60;5.53;;;4.30;76.60;;;;;;5065392;28;20124;-74
2021/04/22 02:00:19;;;;;;;20.90;5.57;;;4.30;76.50;;;;;;5059034;28;20471;-72
2021/04/22 02:02:45;;;;;;;20.48;5.00;;;4.30;76.60;;;;;;5064076;28;20035;-73
2021/04/22 02:05:12;;;;;;;19.98;4.82;;;4.30;76.70;;;;;;5066221;28;20698;-73
2021/04/22 02:07:38;;;;;;;19.35;5.15;;;4.20;76.90;;;;;;5057133;28;20186;-74
2021/04/22 02:10:06;;;;;;;18.45;5.63;;;4.20;77.10;;;;;;5061395;28;20029;-73
2021/04/22 02:12:32;;;;;;;23.88;5.40;;;4.20;77.20;;;;;;5062894;28;20033;-73
2021/04/22 02:14:58;;;;;;;21.33;5.80;;;4.10;77.40;;;;;;5064794;28;20044;-73
2021/04/22 02:17:24;;;;;;;26.33;6.20;;;4.10;77.60;;;;;;5061376;28;20036;-73
2021/04/22 02:19:50;;;;;;;17.95;4.93;;;4.10;77.90;;;;;;5060591;28;20047;-73
2021/04/22 02:22:15;;;;;;;21.60;6.25;;;4.10;78.00;;;;;;5062869;28;20044;-73
2021/04/22 02:24:41;;;;;;;20.88;5.43;;;4.10;77.90;;;;;;5066133;28;20491;-72
2021/04/22 02:27:07;;;;;;;22.02;5.18;;;4.10;77.90;;;;;;5056534;28;20040;-72
2021/04/22 02:29:33;;;;;;;18.17;5.57;;;4.10;78.00;;;;;;5041554;28;20044;-73
2021/04/22 02:31:59;;;;;;;15.95;5.30;;;4.10;78.20;;;;;;5038582;28;20041;-76
2021/04/22 02:34:24;;;;;;;21.25;5.97;;;4.00;78.50;;;;;;5059713;28;20399;-73
2021/04/22 02:36:50;;;;;;;20.10;6.20;;;4.00;78.50;;;;;;5050614;28;20393;-72
2021/04/22 02:39:16;;;;;;;23.58;5.47;;;4.00;78.70;;;;;;5062876;28;20082;-73
2021/04/22 02:41:41;;;;;;;21.33;6.20;;;3.90;78.90;;;;;;5065067;28;20475;-73
2021/04/22 02:44:07;;;;;;;21.05;5.97;;;3.90;79.10;;;;;;5053865;28;20403;-74
2021/04/22 02:46:33;;;;;;;23.38;6.90;;;3.90;79.10;;;;;;5040038;28;20041;-74
2021/04/22 02:48:58;;;;;;;28.35;6.63;;;3.90;79.10;;;;;;5047251;28;20045;-73
2021/04/22 02:51:24;;;;;;;19.33;5.97;;;3.80;79.20;;;;;;5045403;28;20036;-73
2021/04/22 02:53:50;;;;;;;24.88;6.65;;;3.80;79.40;;;;;;5050890;28;20041;-73
2021/04/22 02:56:15;;;;;;;23.23;6.18;;;3.80;79.40;;;;;;5058342;28;20029;-75
2021/04/22 02:58:41;;;;;;;21.98;6.47;;;3.80;79.50;;;;;;5064820;28;20166;-73
2021/04/22 03:01:07;;;;;;;22.40;6.22;;;3.80;79.50;;;;;;5064508;28;20473;-73
2021/04/22 03:03:32;;;;;;;22.55;7.00;;;3.80;79.70;;;;;;5060968;28;20040;-73
2021/04/22 03:05:58;;;;;;;18.77;5.75;;;3.70;79.80;;;;;;5053935;28;20029;-73
2021/04/22 03:08:24;;;;;;;24.33;6.28;;;3.70;79.90;;;;;;5060412;28;20108;-75
2021/04/22 03:10:50;;;;;;;25.50;6.57;;;3.70;79.80;;;;;;5038286;28;20122;-73
2021/04/22 03:13:16;;;;;;;24.40;7.28;;;3.70;79.90;;;;;;5041422;28;20057;-74
2021/04/22 03:15:43;;;;;;;19.70;5.35;;;3.70;80.00;;;;;;5038989;28;20131;-73
2021/04/22 03:18:09;;;;;;;22.15;6.63;;;3.60;80.00;;;;;;5052198;28;20153;-73
2021/04/22 03:20:35;;;;;;;20.73;6.35;;;3.70;80.00;;;;;;5061139;28;20121;-73
2021/04/22 03:23:01;;;;;;;21.90;6.28;;;3.60;80.10;;;;;;5057799;28;20083;-73
2021/04/22 03:25:27;;;;;;;18.52;6.63;;;3.60;80.30;;;;;;5067753;28;20055;-74
2021/04/22 03:27:54;;;;;;;20.42;6.47;;;3.60;80.40;;;;;;5062464;28;20033;-76
2021/04/22 03:30:24;;;;;;;37.45;7.68;;;3.60;80.40;;;;;;5064253;28;20490;-73
2021/04/22 03:32:50;;;;;;;23.92;6.43;;;3.60;80.40;;;;;;5061581;28;20036;-73
2021/04/22 03:35:16;;;;;;;28.85;5.93;;;3.60;80.40;;;;;;5066394;28;20303;-73
2021/04/22 03:37:42;;;;;;;28.25;6.35;;;3.60;80.30;;;;;;5062843;28;20048;-74
2021/04/22 03:40:10;;;;;;;18.23;6.07;;;3.60;80.50;;;;;;5064676;28;20055;-73
2021/04/22 03:42:36;;;;;;;25.60;6.35;;;3.60;80.40;;;;;;5062522;28;20036;-74
2021/04/22 03:45:02;;;;;;;18.20;6.57;;;3.60;80.60;;;;;;5060137;28;20043;-74
2021/04/22 03:47:28;;;;;;;26.20;7.53;;;3.60;80.30;;;;;;5053116;28;20033;-74
2021/04/22 03:49:54;;;;;;;24.67;6.53;;;3.60;80.40;;;;;;5065452;28;20585;-73
2021/04/22 03:52:20;;;;;;;21.25;6.75;;;3.50;80.50;;;;;;5070090;28;20387;-74
2021/04/22 03:54:46;;;;;;;30.60;7.97;;;3.50;80.60;;;;;;5050392;28;20037;-73
2021/04/22 03:57:12;;;;;;;18.25;6.35;;;3.50;80.50;;;;;;5058213;28;20393;-73
2021/04/22 03:59:37;;;;;;;21.70;6.72;;;3.50;80.60;;;;;;5069247;28;20081;-73
2021/04/22 04:02:03;;;;;;;24.05;7.20;;;3.50;80.70;;;;;;5065106;28;20192;-74
2021/04/22 04:04:29;;;;;;;28.13;7.55;;;3.40;80.80;;;;;;5050884;28;20722;-73
2021/04/22 04:06:55;;;;;;;20.80;6.13;;;3.40;80.90;;;;;;5061660;28;20067;-73
2021/04/22 04:09:20;;;;;;;23.70;6.65;;;3.40;80.90;;;;;;5062602;28;20040;-74
2021/04/22 04:11:47;;;;;;;27.90;7.28;;;3.40;80.80;;;;;;5045002;28;20037;-75
2021/04/22 04:14:12;;;;;;;25.48;7.05;;;3.40;80.80;;;;;;5042399;28;20065;-73
2021/04/22 04:16:38;;;;;;;25.40;7.03;;;3.30;80.90;;;;;;5042144;28;20425;-74
2021/04/22 04:19:04;;;;;;;24.30;7.40;;;3.30;80.90;;;;;;5042526;28;20036;-73
2021/04/22 04:21:29;;;;;;;26.35;7.18;;;3.30;80.90;;;;;;5042067;28;20512;-74
2021/04/22 04:23:55;;;;;;;24.63;7.18;;;3.30;81.00;;;;;;5046971;28;20098;-74
2021/04/22 04:26:21;;;;;;;19.75;6.97;;;3.30;81.00;;;;;;5044606;28;20106;-74
2021/04/22 04:28:46;;;;;;;26.00;8.05;;;3.30;80.90;;;;;;5039979;28;20048;-74
2021/04/22 04:31:12;;;;;;;24.23;7.75;;;3.30;81.00;;;;;;5040152;28;20492;-74
2021/04/22 04:33:38;;;;;;;25.30;7.65;;;3.20;81.20;;;;;;5043774;28;20103;-73
2021/04/22 04:36:04;;;;;;;28.85;7.53;;;3.30;81.30;;;;;;5042428;28;20462;-74
2021/04/22 04:38:30;;;;;;;22.60;7.13;;;3.30;81.30;;;;;;5042589;28;20147;-76
2021/04/22 04:40:56;;;;;;;29.75;7.93;;;3.30;81.30;;;;;;5046240;28;20086;-73
2021/04/22 04:43:21;;;;;;;32.42;8.20;;;3.30;81.20;;;;;;5040532;28;20434;-72
2021/04/22 04:45:47;;;;;;;25.90;7.95;;;3.30;81.40;;;;;;5044008;28;20040;-73
2021/04/22 04:48:13;;;;;;;29.42;7.88;;;3.30;81.40;;;;;;5038699;28;20024;-73
2021/04/22 04:50:39;;;;;;;24.33;7.95;;;3.40;81.30;;;;;;5046012;28;20381;-74
2021/04/22 04:53:05;;;;;;;30.30;8.15;;;3.40;81.20;;;;;;5043330;28;20072;-73
2021/04/22 04:55:30;;;;;;;21.45;7.28;;;3.40;81.40;;;;;;5049899;28;20111;-73
2021/04/22 04:57:56;;;;;;;22.52;7.57;;;3.30;81.20;;;;;;5052860;28;20040;-73
2021/04/22 05:00:22;;;;;;;29.63;8.15;;;3.40;81.20;;;;;;5054823;28;20590;-73
2021/04/22 05:02:48;;;;;;;22.85;7.68;;;3.40;81.20;;;;;;5063053;28;20127;-74
2021/04/22 05:05:14;;;;;;;21.77;6.75;;;3.40;81.20;;;;;;5061065;28;20163;-74
2021/04/22 05:07:40;;;;;;;26.98;7.15;;;3.50;81.10;;;;;;5065294;28;20077;-77
2021/04/22 05:10:08;;;;;;;23.85;8.77;;;3.50;81.00;;;;;;5052194;28;20037;-74
2021/04/22 05:12:34;;;;;;;28.50;8.05;;;3.50;81.00;;;;;;5062447;28;20032;-73
2021/04/22 05:15:00;;;;;;;26.65;8.52;;;3.50;80.90;;;;;;5061740;28;20032;-73
2021/04/22 05:17:25;;;;;;;23.25;8.23;;;3.50;80.80;;;;;;5059231;28;20120;-73
2021/04/22 05:19:52;;;;;;;23.45;8.65;;;3.50;80.80;;;;;;5060695;28;20037;-73
2021/04/22 05:22:18;;;;;;;26.83;9.00;;;3.60;80.70;;;;;;5066715;28;20391;-73
2021/04/22 05:24:43;;;;;;;23.00;7.70;;;3.60;80.50;;;;;;5063323;28;20031;-74
2021/04/22 05:27:09;;;;;;;26.83;8.55;;;3.70;80.40;;;;;;5059660;28;20033;-77
2021/04/22 05:29:35;;;;;;;27.40;8.35;;;3.80;80.20;;;;;;5040049;28;20499;-74
2021/04/22 05:32:03;;;;;;;23.05;7.63;;;3.80;79.90;;;;;;5044981;28;20044;-76
2021/04/22 05:34:28;;;;;;;27.20;8.05;;;3.80;79.80;;;;;;5048078;28;20112;-69
2021/04/22 05:36:54;;;;;;;23.15;9.15;;;3.90;79.70;;;;;;5049221;28;20156;-68
2021/04/22 05:39:22;;;;;;;24.15;7.95;;;4.00;79.60;;;;;;5042253;28;20040;-68
2021/04/22 05:41:48;;;;;;;22.50;7.15;;;4.10;79.50;;;;;;5042381;28;20087;-69
2021/04/22 05:44:14;;;;;;;22.58;7.72;;;4.10;79.20;;;;;;5043560;28;21308;-68
2021/04/22 05:46:43;;;;;;;27.95;9.77;;;4.10;79.20;;;;;;5045416;28;20021;-68
2021/04/22 05:49:09;;;;;;;22.05;8.38;;;4.10;79.30;;;;;;5044947;28;20041;-70
2021/04/22 05:51:39;;;;;;;25.38;8.30;;;4.20;79.20;;;;;;5041589;28;20047;-67
2021/04/22 05:54:06;;;;;;;30.77;9.20;;;4.30;78.90;;;;;;5042439;28;20026;-68
2021/04/22 05:56:32;;;;;;;29.63;9.30;;;4.40;78.40;;;;;;5047773;28;20043;-69
2021/04/22 05:58:58;;;;;;;31.75;9.15;;;4.50;78.30;;;;;;5044861;28;20048;-69
2021/04/22 06:01:23;;;;;;;29.95;9.27;;;4.60;77.90;;;;;;5045075;28;20041;-68
2021/04/22 06:03:49;;;;;;;27.77;9.93;;;4.60;77.50;;;;;;5045711;28;20522;-68
2021/04/22 06:06:14;;;;;;;32.22;8.43;;;4.70;77.50;;;;;;5046078;28;20037;-68
2021/04/22 06:08:41;;;;;;;32.90;9.55;;;4.80;77.00;;;;;;5044000;28;20443;-68
2021/04/22 06:11:07;;;;;;;33.75;10.20;;;4.90;77.00;;;;;;5046713;28;20041;-70
2021/04/22 06:13:32;;;;;;;29.83;10.02;;;5.10;76.80;;;;;;5047125;28;20032;-71
2021/04/22 06:15:58;;;;;;;28.75;8.65;;;5.10;76.20;;;;;;5045124;28;20056;-69
2021/04/22 06:18:24;;;;;;;37.92;11.23;;;5.30;75.60;;;;;;5043388;28;20126;-80
2021/04/22 06:20:50;;;;;;;28.38;9.32;;;5.40;75.40;;;;;;5043451;28;20111;-69
2021/04/22 06:23:15;;;;;;;31.73;8.82;;;5.60;75.10;;;;;;5045489;28;20465;-69
2021/04/22 06:25:41;;;;;;;30.05;9.07;;;5.60;75.10;;;;;;5046382;28;20021;-69
2021/04/22 06:28:07;;;;;;;29.83;9.85;;;5.70;74.80;;;;;;5046407;28;20122;-69
2021/04/22 06:30:33;;;;;;;23.27;8.57;;;5.80;74.90;;;;;;5050060;28;20036;-70
2021/04/22 06:32:58;;;;;;;30.20;9.98;;;5.90;74.40;;;;;;5043716;28;20044;-70
2021/04/22 06:35:24;;;;;;;31.98;8.77;;;6.10;73.80;;;;;;5038720;28;20087;-69
2021/04/22 06:37:50;;;;;;;28.40;8.95;;;6.10;71.90;;;;;;5045543;28;20690;-70
2021/04/22 06:40:19;;;;;;;25.27;8.70;;;6.20;71.40;;;;;;5052107;28;20035;-69
2021/04/22 06:42:45;;;;;;;26.10;8.63;;;6.30;71.20;;;;;;5043958;28;20116;-68
2021/04/22 06:45:13;;;;;;;26.17;8.27;;;6.40;70.80;;;;;;5044113;28;20041;-69
2021/04/22 06:47:40;;;;;;;31.15;7.88;;;6.50;70.20;;;;;;5043195;28;20041;-69
2021/04/22 06:50:08;;;;;;;29.48;8.38;;;6.60;68.40;;;;;;5038989;28;20033;-69
2021/04/22 06:52:34;;;;;;;25.27;8.00;;;6.60;67.50;;;;;;5040314;28;20120;-68
2021/04/22 06:55:00;;;;;;;27.90;8.63;;;6.80;67.90;;;;;;5043141;28;20117;-69
2021/04/22 06:57:26;;;;;;;26.65;8.95;;;7.00;67.30;;;;;;5035972;28;20079;-69
2021/04/22 06:59:52;;;;;;;22.95;7.88;;;7.10;66.70;;;;;;5041504;28;20037;-70
2021/04/22 07:02:17;;;;;;;26.38;8.20;;;7.20;66.40;;;;;;5039121;28;20044;-69
2021/04/22 07:04:44;;;;;;;26.42;8.68;;;7.20;65.60;;;;;;5031728;28;20036;-68
2021/04/22 07:07:10;;;;;;;28.88;8.55;;;7.30;65.40;;;;;;5035104;28;20057;-69
2021/04/22 07:09:36;;;;;;;30.05;8.65;;;7.40;65.30;;;;;;5040222;28;20045;-69
2021/04/22 07:12:03;;;;;;;26.02;7.93;;;7.40;64.60;;;;;;5041407;28;20087;-69
2021/04/22 07:14:29;;;;;;;23.33;7.93;;;7.60;65.10;;;;;;5041351;28;20037;-69
2021/04/22 07:16:54;;;;;;;25.38;7.72;;;7.80;64.20;;;;;;5037103;28;20149;-69
2021/04/22 07:19:20;;;;;;;23.98;7.43;;;8.10;64.40;;;;;;5040681;28;20116;-73
2021/04/22 07:21:46;;;;;;;22.15;6.90;;;8.40;63.50;;;;;;5044912;28;20071;-69
2021/04/22 07:24:12;;;;;;;17.38;6.35;;;8.40;60.80;;;;;;5031311;28;20450;-74
2021/04/22 07:26:37;;;;;;;18.65;5.80;;;8.60;60.70;;;;;;5052600;28;20086;-71
2021/04/22 07:29:04;;;;;;;20.92;6.68;;;8.60;58.60;;;;;;5052976;28;20456;-73
2021/04/22 07:31:30;;;;;;;17.85;6.88;;;8.60;58.80;;;;;;5052603;28;20040;-72
2021/04/22 07:33:56;;;;;;;21.05;6.13;;;8.50;58.70;;;;;;5059604;28;20435;-69
2021/04/22 07:36:22;;;;;;;20.67;6.63;;;8.30;58.80;;;;;;5056816;28;20394;-74
2021/04/22 07:38:49;;;;;;;18.52;6.13;;;8.40;59.40;;;;;;5060579;28;20040;-69
2021/04/22 07:41:15;;;;;;;25.73;6.93;;;8.30;59.70;;;;;;5060050;28;20044;-71
2021/04/22 07:43:42;;;;;;;22.42;7.20;;;8.30;59.40;;;;;;5058975;28;20032;-69
2021/04/22 07:46:08;;;;;;;17.45;6.43;;;8.30;59.20;;;;;;5060755;28;20425;-69
2021/04/22 07:48:34;;;;;;;25.27;8.02;;;8.50;59.50;;;;;;5055765;28;20052;-69
2021/04/22 07:51:00;;;;;;;22.05;6.68;;;8.80;58.70;;;;;;5056797;28;20553;-69
2021/04/22 07:53:26;;;;;;;22.58;6.65;;;8.60;58.00;;;;;;5033209;28;20030;-69
2021/04/22 07:55:52;;;;;;;24.13;6.70;;;8.70;58.30;;;;;;5038817;28;20747;-71
2021/04/22 07:58:18;;;;;;;17.55;7.72;;;9.10;58.60;;;;;;5049648;28;20041;-70
2021/04/22 08:00:46;;;;;;;19.25;6.57;;;9.50;56.80;;;;;;5053662;28;20033;-70
2021/04/22 08:03:13;;;;;;;22.35;8.05;;;9.70;56.70;;;;;;5039382;28;20088;-72
2021/04/22 08:05:40;;;;;;;22.48;7.38;;;9.70;56.40;;;;;;5049065;28;20040;-75
2021/04/22 08:08:08;;;;;;;25.77;6.53;;;9.60;55.30;;;;;;5056835;28;20449;-71
2021/04/22 08:10:36;;;;;;;25.08;6.50;;;9.60;56.00;;;;;;5057221;28;20037;-71
2021/04/22 08:13:03;;;;;;;19.10;6.93;;;9.30;55.00;;;;;;5054919;28;20035;-69
2021/04/22 08:15:30;;;;;;;20.85;6.93;;;9.20;55.80;;;;;;5056759;28;20098;-74
2021/04/22 08:17:56;;;;;;;18.35;6.60;;;9.20;56.00;;;;;;5054214;28;20021;-70
2021/04/22 08:20:25;;;;;;;19.67;6.25;;;9.20;56.20;;;;;;5056085;28;20510;-75
2021/04/22 08:22:53;;;;;;;21.08;6.07;;;9.60;56.60;;;;;;5050473;28;20039;-73
2021/04/22 08:25:24;;;;;;;19.98;6.25;;;9.80;55.60;;;;;;5032970;28;20495;-69
2021/04/22 08:27:53;;;;;;;19.15;6.75;;;10.20;54.40;;;;;;5057515;28;20156;-74
2021/04/22 08:30:24;;;;;;;19.08;6.15;;;10.30;53.30;;;;;;5058901;28;20052;-70
2021/04/22 08:32:50;;;;;;;15.50;5.15;;;10.50;52.20;;;;;;5051489;28;20499;-70
2021/04/22 08:35:16;;;;;;;19.80;5.60;;;10.60;51.50;;;;;;5056126;28;20036;-80
2021/04/22 08:37:42;;;;;;;19.33;6.10;;;10.80;52.00;;;;;;5055689;28;20411;-72
2021/04/22 08:40:10;;;;;;;16.30;6.18;;;10.80;50.20;;;;;;5054768;28;20031;-70
2021/04/22 08:42:37;;;;;;;22.52;6.25;;;11.00;51.10;;;;;;5041067;28;20056;-73
2021/04/22 08:45:06;;;;;;;21.77;5.85;;;10.10;51.90;;;;;;5039494;28;20151;-71
2021/04/22 08:47:32;;;;;;;18.70;5.55;;;10.20;52.70;;;;;;5036900;28;20040;-74
2021/04/22 08:49:58;;;;;;;21.38;5.18;;;10.10;52.10;;;;;;5055924;28;20036;-77
2021/04/22 08:52:24;;;;;;;21.10;5.90;;;10.40;51.60;;;;;;5061686;28;20112;-73
2021/04/22 08:54:51;;;;;;;21.05;5.65;;;10.20;52.00;;;;;;5058814;28;20154;-69
2021/04/22 08:57:18;;;;;;;18.65;5.25;;;10.20;53.00;;;;;;5049791;28;20037;-72
2021/04/22 08:59:44;;;;;;;18.33;4.88;;;10.70;51.40;;;;;;5046526;28;20026;-69
2021/04/22 09:02:10;;;;;;;16.45;6.47;;;11.10;50.80;;;;;;5029054;28;20511;-70
2021/04/22 09:04:36;;;;;;;16.27;5.45;;;11.40;50.20;;;;;;5042882;28;20028;-74
2021/04/22 09:07:02;;;;;;;18.70;6.38;;;11.10;49.10;;;;;;5049984;28;20075;-71
2021/04/22 09:09:28;;;;;;;18.35;5.18;;;10.70;50.80;;;;;;5049258;28;20032;-73
2021/04/22 09:11:54;;;;;;;21.90;6.80;;;10.70;51.60;;;;;;5048231;28;20097;-71
2021/04/22 09:14:22;;;;;;;15.00;5.47;;;10.70;51.80;;;;;;5049057;28;20040;-69
2021/04/22 09:16:48;;;;;;;23.10;7.03;;;10.70;51.00;;;;;;5047122;28;20036;-73
2021/04/22 09:19:18;;;;;;;19.38;5.90;;;10.90;51.80;;;;;;5048146;28;20028;-70
2021/04/22 09:21:51;;;;;;;14.35;6.05;;;11.20;51.30;;;;;;5041198;28;20034;-71
2021/04/22 09:24:19;;;;;;;32.92;7.57;;;11.60;51.20;;;;;;5048175;28;20059;-73
2021/04/22 09:26:52;;;;;;;18.65;7.32;;;11.70;50.10;;;;;;5024601;28;20889;-73
2021/04/22 09:29:39;;;;;;;19.05;6.68;;;11.70;50.10;;;;;;5026616;28;20512;-72
2021/04/22 09:32:10;;;;;;;17.80;7.72;;;11.60;50.10;;;;;;5027064;28;20044;-73
2021/04/22 09:34:37;;;;;;;18.90;7.55;;;11.30;50.00;;;;;;5027948;28;20033;-70
2021/04/22 09:37:03;;;;;;;17.65;6.22;;;10.70;50.70;;;;;;5025501;28;20472;-74
2021/04/22 09:39:30;;;;;;;22.33;6.20;;;10.50;51.10;;;;;;5035413;28;20143;-73
2021/04/22 09:41:59;;;;;;;21.67;6.40;;;10.70;51.20;;;;;;5028052;28;20045;-71
2021/04/22 09:44:26;;;;;;;17.13;5.93;;;11.10;49.70;;;;;;5029671;28;20484;-70
2021/04/22 09:47:08;;;;;;;21.05;6.03;;;11.30;50.10;;;;;;5029087;28;20481;-68
2021/04/22 09:49:52;;;;;;;17.60;5.93;;;11.80;50.50;;;;;;5044089;28;20053;-69
2021/04/22 09:52:20;;;;;;;18.42;5.97;;;12.00;49.10;;;;;;5042378;28;20040;-71
2021/04/22 09:54:54;;;;;;;15.95;5.25;;;12.30;47.50;;;;;;5049233;28;20032;-74
2021/04/22 09:57:31;;;;;;;14.38;4.90;;;11.70;48.00;;;;;;5048171;28;20037;-74
2021/04/22 09:59:59;;;;;;;15.35;5.30;;;11.60;47.90;;;;;;5046502;28;20040;-71
2021/04/22 10:02:26;;;;;;;17.77;5.97;;;11.90;49.40;;;;;;5030493;28;20044;-69
2021/04/22 10:04:54;;;;;;;14.23;5.85;;;11.80;47.30;;;;;;5035228;28;20038;-68
2021/04/22 10:07:33;;;;;;;15.20;5.25;;;12.10;47.00;;;;;;5030646;28;20041;-72
2021/04/22 10:10:01;;;;;;;16.90;5.60;;;12.00;46.80;;;;;;5046819;28;20098;-72
2021/04/22 10:12:32;;;;;;;17.88;5.57;;;12.20;46.20;;;;;;5026458;28;20047;-73
2021/04/22 10:15:10;;;;;;;19.77;6.15;;;12.20;46.30;;;;;;5047659;28;20583;-69
2021/04/22 10:17:36;;;;;;;16.17;5.10;;;12.60;46.80;;;;;;5030196;28;20041;-70
2021/04/22 10:20:11;;;;;;;15.77;5.45;;;12.80;45.30;;;;;;5025749;28;20440;-71
2021/04/22 10:22:39;;;;;;;20.40;5.85;;;13.20;44.50;;;;;;5026727;28;20758;-72
2021/04/22 10:25:10;;;;;;;19.05;5.55;;;13.60;43.60;;;;;;5031952;28;20033;-69
2021/04/22 10:27:39;;;;;;;22.00;6.43;;;13.50;43.20;;;;;;5024766;28;20123;-72
2021/04/22 10:30:08;;;;;;;17.00;5.03;;;13.30;43.90;;;;;;5020257;28;20584;-71
2021/04/22 10:32:34;;;;;;;17.05;5.22;;;13.10;44.00;;;;;;5024904;28;20125;-73
2021/04/22 10:35:02;;;;;;;16.63;5.78;;;12.60;43.80;;;;;;5028295;28;20148;-70
2021/04/22 10:37:29;;;;;;;18.42;6.55;;;12.10;44.90;;;;;;5026759;28;20037;-68
2021/04/22 10:39:57;;;;;;;16.77;5.18;;;12.70;45.60;;;;;;5023820;28;20026;-71
2021/04/22 10:42:23;;;;;;;16.58;5.40;;;12.60;44.60;;;;;;5027848;28;20041;-69
2021/04/22 10:44:49;;;;;;;21.38;6.13;;;12.60;45.20;;;;;;5027821;28;20059;-72
2021/04/22 10:47:23;;;;;;;14.88;4.65;;;12.90;43.30;;;;;;5024556;28;20464;-70
2021/04/22 10:49:50;;;;;;;22.60;5.90;;;13.30;43.70;;;;;;5034256;28;20429;-69
2021/04/22 10:52:17;;;;;;;17.55;5.68;;;13.20;44.40;;;;;;5022675;28;20299;-71
2021/04/22 10:54:44;;;;;;;18.20;5.97;;;13.30;43.80;;;;;;5026102;28;20079;-73
2021/04/22 10:57:12;;;;;;;15.82;5.80;;;13.70;43.50;;;;;;5029020;28;20040;-69
2021/04/22 10:59:38;;;;;;;18.40;5.38;;;13.10;43.10;;;;;;5029162;28;20159;-69
2021/04/22 11:02:39;;;;;;;17.65;5.35;;;13.40;43.50;;;;;;5034074;28;20532;-72
2021/04/22 11:05:19;;;;;;;18.38;5.60;;;13.40;44.50;;;;;;5029486;28;20294;-72
2021/04/22 11:07:55;;;;;;;18.88;5.63;;;13.50;43.70;;;;;;5030012;28;20074;-71
2021/04/22 11:10:21;;;;;;;14.23;4.75;;;12.70;44.60;;;;;;5030393;28;20114;-73
2021/04/22 11:12:47;;;;;;;18.90;5.85;;;12.90;43.20;;;;;;5028501;28;20365;-70
2021/04/22 11:15:19;;;;;;;16.13;5.55;;;13.30;44.40;;;;;;5035686;28;20032;-71
2021/04/22 11:17:45;;;;;;;22.55;5.65;;;13.40;40.90;;;;;;5031485;28;20034;-73
2021/04/22 11:20:16;;;;;;;16.77;5.35;;;13.30;42.10;;;;;;5024047;28;20083;-69
2021/04/22 11:22:44;;;;;;;18.02;5.32;;;13.50;42.40;;;;;;5028201;28;20418;-70
2021/04/22 11:25:22;;;;;;;17.35;5.70;;;13.60;41.40;;;;;;5028835;28;20113;-72
2021/04/22 11:27:52;;;;;;;15.25;4.95;;;13.50;43.50;;;;;;5027504;28;20036;-72
2021/04/22 11:30:30;;;;;;;18.08;5.47;;;12.90;43.50;;;;;;5028489;28;20072;-69
2021/04/22 11:32:57;;;;;;;14.13;4.40;;;12.90;44.50;;;;;;5031532;28;20045;-71
2021/04/22 11:35:26;;;;;;;14.57;5.38;;;13.10;43.80;;;;;;5027910;28;20514;-69
2021/04/22 11:38:09;;;;;;;17.02;4.85;;;13.00;43.60;;;;;;5027043;28;20056;-71
2021/04/22 11:40:45;;;;;;;22.10;5.75;;;13.00;42.50;;;;;;5027398;28;20389;-70
2021/04/22 11:43:26;;;;;;;16.40;5.18;;;13.00;43.10;;;;;;5031643;28;20136;-69
2021/04/22 11:45:59;;;;;;;19.23;5.40;;;13.40;43.10;;;;;;5027907;28;20175;-70
2021/04/22 11:48:25;;;;;;;20.85;5.25;;;13.60;43.40;;;;;;5033979;28;20481;-71
2021/04/22 11:50:57;;;;;;;14.23;5.13;;;13.60;41.60;;;;;;5031893;28;20037;-69
2021/04/22 11:53:34;;;;;;;15.77;5.80;;;13.20;42.60;;;;;;5042435;28;20035;-69
2021/04/22 11:56:01;;;;;;;14.57;4.47;;;13.20;43.10;;;;;;5033115;28;20370;-69
2021/04/22 11:58:29;;;;;;;14.48;5.20;;;13.60;42.20;;;;;;5030450;28;20028;-72
2021/04/22 12:01:14;;;;;;;14.48;4.70;;;13.70;41.40;;;;;;5053906;28;20096;-70
2021/04/22 12:03:41;;;;;;;17.73;5.43;;;13.60;43.20;;;;;;5052384;28;20045;-73
2021/04/22 12:06:13;;;;;;;15.95;5.35;;;13.60;41.70;;;;;;5055509;28;20052;-69
2021/04/22 12:08:46;;;;;;;14.68;5.78;;;13.70;41.50;;;;;;5049488;28;20630;-72
2021/04/22 12:11:21;;;;;;;15.65;5.10;;;13.40;41.90;;;;;;5052682;28;20132;-69
2021/04/22 12:13:48;;;;;;;17.10;5.75;;;13.50;41.20;;;;;;5042599;28;20026;-71
2021/04/22 12:16:15;;;;;;;18.58;5.47;;;13.90;40.60;;;;;;5050157;28;20033;-71
2021/04/22 12:18:44;;;;;;;16.90;5.55;;;13.80;40.50;;;;;;5054364;28;20053;-70
2021/04/22 12:21:14;;;;;;;13.38;4.90;;;14.00;40.00;;;;;;5054769;28;20385;-69
2021/04/22 12:23:48;;;;;;;16.48;5.43;;;14.20;39.90;;;;;;5041664;28;20032;-72
2021/04/22 12:26:23;;;;;;;19.75;5.47;;;13.60;40.60;;;;;;5030911;28;20046;-72
2021/04/22 12:29:12;;;;;;;14.45;5.13;;;13.60;41.80;;;;;;5032157;28;20060;-71
2021/04/22 12:31:40;;;;;;;17.52;5.35;;;13.70;42.00;;;;;;5054862;28;20048;-69
2021/04/22 12:34:22;;;;;;;13.63;4.63;;;14.30;40.20;;;;;;5055971;28;20424;-73
2021/04/22 12:37:13;;;;;;;19.13;5.40;;;14.50;39.10;;;;;;5054886;28;20040;-71
2021/04/22 12:40:11;;;;;;;17.08;4.95;;;14.40;40.80;;;;;;5049307;28;20060;-70
2021/04/22 12:42:37;;;;;;;13.50;5.70;;;14.20;42.00;;;;;;5001885;28;20048;-73
2021/04/22 12:45:14;;;;;;;13.13;6.20;;;14.40;42.10;;;;;;5057352;28;21064;-71
2021/04/22 12:47:54;;;;;;;19.60;5.45;;;14.40;40.10;;;;;;5031666;28;20196;-69